createdAt,value
2023-04-18T00:00:12.373Z,44.58
2023-04-18T00:02:40.271Z,52.45
2023-04-18T00:05:08.516Z,49.85
2023-04-18T00:07:36.043Z,53.38
2023-04-18T00:10:03.635Z,49.35
2023-04-18T00:12:31.991Z,43.75
2023-04-18T00:14:59.176Z,50.65
2023-04-18T00:17:30.449Z,53.80
2023-04-18T00:19:58.360Z,46.80
2023-04-18T00:22:26.897Z,54.28
2023-04-18T00:24:54.075Z,46.10
2023-04-18T00:27:22.174Z,44.13
2023-04-18T00:29:49.796Z,41.28
2023-04-18T00:32:17.170Z,45.38
2023-04-18T00:34:44.429Z,45.83
2023-04-18T00:37:11.614Z,41.35
2023-04-18T00:39:38.729Z,40.65
2023-04-18T00:42:06.248Z,39.50
2023-04-18T00:44:33.656Z,40.50
2023-04-18T00:47:01.179Z,39.80
2023-04-18T00:49:28.501Z,33.10
2023-04-18T00:51:56.981Z,41.97
2023-04-18T00:54:25.131Z,38.45
2023-04-18T00:56:52.306Z,33.60
2023-04-18T00:59:19.473Z,32.67
2023-04-18T01:01:46.984Z,32.75
2023-04-18T01:04:14.705Z,33.03
2023-04-18T01:06:44.332Z,31.10
2023-04-18T01:09:11.685Z,36.17
2023-04-18T01:11:39.106Z,32.22
2023-04-18T01:14:08.527Z,36.20
2023-04-18T01:16:37.135Z,28.63
2023-04-18T01:19:05.768Z,27.27
2023-04-18T01:21:36.215Z,30.35
2023-04-18T01:24:12.184Z,27.38
2023-04-18T01:26:39.672Z,25.23
2023-04-18T01:29:06.826Z,27.95
2023-04-18T01:31:37.823Z,25.55
2023-04-18T01:34:05.745Z,24.70
2023-04-18T01:36:33.165Z,24.48
2023-04-18T01:39:00.766Z,28.73
2023-04-18T01:41:29.914Z,27.67
2023-04-18T01:43:57.119Z,27.05
2023-04-18T01:46:24.286Z,25.02
2023-04-18T01:48:51.408Z,26.75
2023-04-18T01:51:18.561Z,25.85
2023-04-18T01:53:45.768Z,26.58
2023-04-18T01:56:13.097Z,28.45
2023-04-18T01:58:41.642Z,27.45
2023-04-18T02:01:08.970Z,29.17
2023-04-18T02:03:36.564Z,32.38
2023-04-18T02:06:07.001Z,26.85
2023-04-18T02:08:35.973Z,26.75
2023-04-18T02:11:03.590Z,29.30
2023-04-18T02:13:31.011Z,28.48
2023-04-18T02:15:58.283Z,35.15
2023-04-18T02:18:25.835Z,33.05
2023-04-18T02:20:53.036Z,29.40
2023-04-18T02:23:20.323Z,35.08
2023-04-18T02:25:47.534Z,31.13
2023-04-18T02:28:14.647Z,32.08
2023-04-18T02:30:41.851Z,33.78
2023-04-18T02:33:09.050Z,27.75
2023-04-18T02:35:38.043Z,32.47
2023-04-18T02:38:05.412Z,25.10
2023-04-18T02:40:32.559Z,29.75
2023-04-18T02:42:59.766Z,30.45
2023-04-18T02:45:26.996Z,29.27
2023-04-18T02:47:56.490Z,28.15
2023-04-18T02:50:24.289Z,30.02
2023-04-18T02:52:51.473Z,31.38
2023-04-18T02:55:18.875Z,28.17
2023-04-18T02:57:46.358Z,26.38
2023-04-18T03:00:13.908Z,31.65
2023-04-18T03:02:41.217Z,28.83
2023-04-18T03:05:09.001Z,27.38
2023-04-18T03:07:36.160Z,27.45
2023-04-18T03:10:03.753Z,30.52
2023-04-18T03:12:30.895Z,32.45
2023-04-18T03:14:58.086Z,30.02
2023-04-18T03:17:25.337Z,34.80
2023-04-18T03:19:52.567Z,29.80
2023-04-18T03:22:19.789Z,31.25
2023-04-18T03:24:46.979Z,33.63
2023-04-18T03:27:14.128Z,42.30
2023-04-18T03:29:41.282Z,30.00
2023-04-18T03:32:08.404Z,31.30
2023-04-18T03:34:36.109Z,30.05
2023-04-18T03:37:03.210Z,31.75
2023-04-18T03:39:30.397Z,33.38
2023-04-18T03:41:57.756Z,33.22
2023-04-18T03:44:24.914Z,30.52
2023-04-18T03:46:52.063Z,32.28
2023-04-18T03:49:19.203Z,31.15
2023-04-18T03:51:50.305Z,35.30
2023-04-18T03:54:17.762Z,39.13
2023-04-18T03:56:45.341Z,36.47
2023-04-18T03:59:12.670Z,39.30
2023-04-18T04:01:39.903Z,41.85
2023-04-18T04:04:09.207Z,37.05
2023-04-18T04:06:36.593Z,38.38
2023-04-18T04:09:04.056Z,39.38
2023-04-18T04:11:31.356Z,47.80
2023-04-18T04:13:58.740Z,41.80
2023-04-18T04:16:25.989Z,41.22
2023-04-18T04:18:53.194Z,43.92
2023-04-18T04:21:21.242Z,45.40
2023-04-18T04:23:49.152Z,42.08
2023-04-18T04:26:16.534Z,45.92
2023-04-18T04:28:46.476Z,47.25
2023-04-18T04:31:13.747Z,39.80
2023-04-18T04:33:41.185Z,43.88
2023-04-18T04:36:08.976Z,43.97
2023-04-18T04:38:38.397Z,44.13
2023-04-18T04:41:09.253Z,40.67
2023-04-18T04:43:36.640Z,44.33
2023-04-18T04:46:04.714Z,44.08
2023-04-18T04:48:31.987Z,41.50
2023-04-18T04:51:01.908Z,43.05
2023-04-18T04:53:33.034Z,46.22
2023-04-18T04:56:00.293Z,45.58
2023-04-18T04:58:27.594Z,49.70
2023-04-18T05:00:54.958Z,40.95
2023-04-18T05:03:22.247Z,54.90
2023-04-18T05:05:49.544Z,50.03
2023-04-18T05:08:17.926Z,50.33
2023-04-18T05:10:45.982Z,51.15
2023-04-18T05:13:13.317Z,51.95
2023-04-18T05:15:40.717Z,46.85
2023-04-18T05:18:08.681Z,46.28
2023-04-18T05:20:36.013Z,49.20
2023-04-18T05:23:03.200Z,49.53
2023-04-18T05:25:31.525Z,49.38
2023-04-18T05:27:58.737Z,49.08
2023-04-18T05:30:25.909Z,51.20
2023-04-18T05:32:53.292Z,51.80
2023-04-18T05:35:23.239Z,53.00
2023-04-18T05:37:51.352Z,53.80
2023-04-18T05:40:18.496Z,47.78
2023-04-18T05:42:45.881Z,41.60
2023-04-18T05:45:13.126Z,46.28
2023-04-18T05:47:40.625Z,45.10
2023-04-18T05:50:08.237Z,38.13
2023-04-18T05:52:37.876Z,34.75
2023-04-18T05:55:05.710Z,32.40
2023-04-18T05:57:32.974Z,35.80
2023-04-18T06:00:00.095Z,32.50
2023-04-18T06:02:27.382Z,38.78
2023-04-18T06:04:55.042Z,30.45
2023-04-18T06:07:25.143Z,31.48
2023-04-18T06:09:54.001Z,29.25
2023-04-18T06:12:21.442Z,28.83
2023-04-18T06:14:48.598Z,41.47
2023-04-18T06:17:15.816Z,34.22
2023-04-18T06:19:43.014Z,33.28
2023-04-18T06:22:10.372Z,31.52
2023-04-18T06:24:37.551Z,30.23
2023-04-18T06:27:05.786Z,35.00
2023-04-18T06:29:33.281Z,32.60
2023-04-18T06:32:00.709Z,26.83
2023-04-18T06:34:27.995Z,27.92
2023-04-18T06:36:55.458Z,33.75
2023-04-18T06:39:22.615Z,27.15
2023-04-18T06:41:50.137Z,26.02
2023-04-18T06:44:17.315Z,26.83
2023-04-18T06:46:44.508Z,25.35
2023-04-18T06:49:11.684Z,25.17
2023-04-18T06:51:38.953Z,24.35
2023-04-18T06:54:06.233Z,24.05
2023-04-18T06:56:36.260Z,23.35
2023-04-18T06:59:03.668Z,23.35
2023-04-18T07:01:34.032Z,26.50
2023-04-18T07:04:01.474Z,29.23
2023-04-18T07:06:28.702Z,25.02
2023-04-18T07:09:00.061Z,27.63
2023-04-18T07:11:27.548Z,31.20
2023-04-18T07:13:54.709Z,27.63
2023-04-18T07:16:22.066Z,29.60
2023-04-18T07:18:49.286Z,27.63
2023-04-18T07:21:16.471Z,29.63
2023-04-18T07:23:43.628Z,32.15
2023-04-18T07:26:13.281Z,29.15
2023-04-18T07:28:40.621Z,31.42
2023-04-18T07:31:11.290Z,33.70
2023-04-18T07:33:38.989Z,32.47
2023-04-18T07:36:06.373Z,29.42
2023-04-18T07:38:35.409Z,32.72
2023-04-18T07:41:03.290Z,34.85
2023-04-18T07:43:30.877Z,35.65
2023-04-18T07:45:58.076Z,36.03
2023-04-18T07:48:25.540Z,34.05
2023-04-18T07:50:52.695Z,39.75
2023-04-18T07:53:20.106Z,38.67
2023-04-18T07:55:47.354Z,43.42
2023-04-18T07:58:15.013Z,42.08
2023-04-18T08:00:42.742Z,40.40
2023-04-18T08:03:11.078Z,48.08
2023-04-18T08:05:42.363Z,56.00
2023-04-18T08:08:11.128Z,41.80
2023-04-18T08:10:38.743Z,47.53
2023-04-18T08:13:05.975Z,54.15
2023-04-18T08:15:33.316Z,49.58
2023-04-18T08:18:01.146Z,49.30
2023-04-18T08:20:28.611Z,107.07
2023-04-18T08:25:26.411Z,38.85
2023-04-18T08:27:53.705Z,37.13
2023-04-18T08:30:21.174Z,38.78
2023-04-18T08:32:49.893Z,38.15
2023-04-18T08:35:17.356Z,36.83
2023-04-18T08:37:44.788Z,34.88
2023-04-18T08:40:11.970Z,41.20
2023-04-18T08:42:39.215Z,37.83
2023-04-18T08:45:07.040Z,41.92
2023-04-18T08:47:35.831Z,35.17
2023-04-18T08:50:03.379Z,34.38
2023-04-18T08:52:31.205Z,41.05
2023-04-18T08:54:58.390Z,41.28
2023-04-18T08:57:28.472Z,44.28
2023-04-18T08:59:55.684Z,33.80
2023-04-18T09:02:23.525Z,28.77
2023-04-18T09:04:54.024Z,27.88
2023-04-18T09:07:28.591Z,41.40
2023-04-18T09:09:57.331Z,21.40
2023-04-18T09:12:25.647Z,21.08
2023-04-18T09:14:57.785Z,32.05
2023-04-18T09:17:33.108Z,19.77
2023-04-18T09:20:01.530Z,28.25
2023-04-18T09:22:46.016Z,17.67
2023-04-18T09:25:24.851Z,22.45
2023-04-18T09:27:52.491Z,40.35
2023-04-18T09:30:33.462Z,24.02
2023-04-18T09:33:01.574Z,25.48
2023-04-18T09:35:29.064Z,23.30
2023-04-18T09:37:56.398Z,32.03
2023-04-18T09:40:24.164Z,37.15
2023-04-18T09:42:52.988Z,21.55
2023-04-18T09:45:20.217Z,27.63
2023-04-18T09:47:47.404Z,22.05
2023-04-18T09:50:17.061Z,22.02
2023-04-18T09:52:44.751Z,26.00
2023-04-18T09:55:13.491Z,26.77
2023-04-18T09:57:43.259Z,24.85
2023-04-18T10:00:20.449Z,21.92
2023-04-18T10:02:53.657Z,23.08
2023-04-18T10:05:22.056Z,23.83
2023-04-18T10:07:50.637Z,22.17
2023-04-18T10:10:18.302Z,24.05
2023-04-18T10:12:48.038Z,23.08
2023-04-18T10:15:16.049Z,22.65
2023-04-18T10:17:56.059Z,21.58
2023-04-18T10:20:31.130Z,21.65
2023-04-18T10:22:59.102Z,21.98
2023-04-18T10:25:41.584Z,31.35
2023-04-18T10:28:09.533Z,18.33
2023-04-18T10:30:42.253Z,21.38
2023-04-18T10:33:29.928Z,19.73
2023-04-18T10:36:00.502Z,19.17
2023-04-18T10:38:28.155Z,23.75
2023-04-18T10:41:13.291Z,22.20
2023-04-18T10:43:59.461Z,19.08
2023-04-18T10:46:32.589Z,23.27
2023-04-18T10:49:36.257Z,18.00
2023-04-18T10:52:04.465Z,16.00
2023-04-18T10:54:50.189Z,22.38
2023-04-18T10:57:17.855Z,16.63
2023-04-18T10:59:48.791Z,16.63
2023-04-18T11:02:24.223Z,18.92
2023-04-18T11:04:55.761Z,17.92
2023-04-18T11:07:35.068Z,18.92
2023-04-18T11:10:02.407Z,18.35
2023-04-18T11:12:34.215Z,18.23
2023-04-18T11:15:03.638Z,25.23
2023-04-18T11:17:40.124Z,19.30
2023-04-18T11:20:12.757Z,19.27
2023-04-18T11:22:47.204Z,27.52
2023-04-18T11:25:14.689Z,20.42
2023-04-18T11:27:43.070Z,21.95
2023-04-18T11:30:11.338Z,38.92
2023-04-18T11:32:38.743Z,25.90
2023-04-18T11:35:09.105Z,37.95
2023-04-18T11:37:37.622Z,120.35
2023-04-18T11:40:07.689Z,157.30
2023-04-18T11:42:35.794Z,88.68
2023-04-18T11:45:03.622Z,200.75
2023-04-18T11:47:33.328Z,121.32
2023-04-18T11:50:01.763Z,282.20
2023-04-18T11:52:29.729Z,242.82
2023-04-18T11:54:57.605Z,107.78
2023-04-18T11:57:26.303Z,155.80
2023-04-18T11:59:54.775Z,137.32
2023-04-18T12:02:22.841Z,48.33
2023-04-18T12:04:58.310Z,76.93
2023-04-18T12:07:42.310Z,55.10
2023-04-18T12:12:37.320Z,66.57
2023-04-18T12:15:04.883Z,100.30
2023-04-18T12:17:32.611Z,57.38
2023-04-18T12:20:03.846Z,36.50
2023-04-18T12:22:50.319Z,28.02
2023-04-18T12:25:24.353Z,31.65
2023-04-18T12:27:58.494Z,28.92
2023-04-18T12:30:27.307Z,30.33
2023-04-18T12:32:55.969Z,23.40
2023-04-18T12:35:24.241Z,20.85
2023-04-18T12:37:52.137Z,24.17
2023-04-18T12:40:20.396Z,25.42
2023-04-18T12:42:48.544Z,22.85
2023-04-18T12:45:16.802Z,24.20
2023-04-18T12:47:45.218Z,20.90
2023-04-18T12:50:17.729Z,22.63
2023-04-18T12:52:45.824Z,25.40
2023-04-18T12:55:13.352Z,23.35
2023-04-18T12:57:41.168Z,20.58
2023-04-18T13:00:11.488Z,24.75
2023-04-18T13:02:39.199Z,26.67
2023-04-18T13:05:07.826Z,19.88
2023-04-18T13:07:37.457Z,19.17
2023-04-18T13:10:05.119Z,26.15
2023-04-18T13:12:32.306Z,22.23
2023-04-18T13:14:59.474Z,23.92
2023-04-18T13:17:26.850Z,25.67
2023-04-18T13:19:54.076Z,28.38
2023-04-18T13:22:21.533Z,28.08
2023-04-18T13:24:48.834Z,27.95
2023-04-18T13:27:16.005Z,28.38
2023-04-18T13:29:44.520Z,25.48
2023-04-18T13:32:11.953Z,22.95
2023-04-18T13:34:40.405Z,24.33
2023-04-18T13:37:07.645Z,35.55
2023-04-18T13:39:34.872Z,33.33
2023-04-18T13:42:05.042Z,36.78
2023-04-18T13:44:32.411Z,23.80
2023-04-18T13:46:59.575Z,31.50
2023-04-18T13:49:27.005Z,29.15
2023-04-18T13:51:57.095Z,28.25
2023-04-18T13:54:26.535Z,34.65
2023-04-18T13:56:54.425Z,25.35
2023-04-18T13:59:21.549Z,25.38
2023-04-18T14:01:49.227Z,26.02
2023-04-18T14:04:17.100Z,25.15
2023-04-18T14:06:44.414Z,32.38
2023-04-18T14:09:11.596Z,30.58
2023-04-18T14:11:39.022Z,32.25
2023-04-18T14:14:07.229Z,29.10
2023-04-18T14:16:34.660Z,29.02
2023-04-18T14:19:02.394Z,35.92
2023-04-18T14:21:29.977Z,25.52
2023-04-18T14:23:57.383Z,40.85
2023-04-18T14:26:24.618Z,34.67
2023-04-18T14:28:52.158Z,122.57
2023-04-18T14:31:19.439Z,60.17
2023-04-18T14:33:46.674Z,69.57
2023-04-18T14:36:15.281Z,27.90
2023-04-18T14:38:42.557Z,25.67
2023-04-18T14:41:09.822Z,24.63
2023-04-18T14:43:37.064Z,25.08
2023-04-18T14:46:04.207Z,24.25
2023-04-18T14:48:31.434Z,36.13
2023-04-18T14:50:59.267Z,25.45
2023-04-18T14:53:27.105Z,26.75
2023-04-18T14:55:54.504Z,26.80
2023-04-18T14:58:21.753Z,27.52
2023-04-18T15:00:49.261Z,27.50
2023-04-18T15:03:16.914Z,35.90
2023-04-18T15:05:46.506Z,27.05
2023-04-18T15:08:14.577Z,31.48
2023-04-18T15:10:42.571Z,27.83
2023-04-18T15:13:11.085Z,29.13
2023-04-18T15:15:39.843Z,27.95
2023-04-18T15:18:08.429Z,30.90
2023-04-18T15:20:37.217Z,32.33
2023-04-18T15:23:04.596Z,29.35
2023-04-18T15:25:32.049Z,30.05
2023-04-18T15:27:59.226Z,27.95
2023-04-18T15:30:26.489Z,32.42
2023-04-18T15:32:54.068Z,31.30
2023-04-18T15:35:21.314Z,30.67
2023-04-18T15:37:49.208Z,29.73
2023-04-18T15:40:18.195Z,31.00
2023-04-18T15:42:46.022Z,29.90
2023-04-18T15:45:13.565Z,28.45
2023-04-18T15:47:41.718Z,29.67
2023-04-18T15:50:09.538Z,33.45
2023-04-18T15:52:36.816Z,30.55
2023-04-18T15:55:05.160Z,32.63
2023-04-18T15:57:32.811Z,28.05
2023-04-18T16:00:00.095Z,27.90
2023-04-18T16:02:27.500Z,26.52
2023-04-18T16:04:54.734Z,28.40
2023-04-18T16:07:21.935Z,23.48
2023-04-18T16:09:49.095Z,25.30
2023-04-18T16:12:16.358Z,29.33
2023-04-18T16:14:43.514Z,26.15
2023-04-18T16:17:10.660Z,22.48
2023-04-18T16:19:38.890Z,21.38
2023-04-18T16:22:07.330Z,21.85
2023-04-18T16:24:34.501Z,23.00
2023-04-18T16:27:01.706Z,23.35
2023-04-18T16:29:28.975Z,20.02
2023-04-18T16:31:58.156Z,24.05
2023-04-18T16:34:26.348Z,23.45
2023-04-18T16:36:55.141Z,25.17
2023-04-18T16:39:22.890Z,22.77
2023-04-18T16:41:51.236Z,23.00
2023-04-18T16:44:18.438Z,19.75
2023-04-18T16:46:45.777Z,19.00
2023-04-18T16:49:13.084Z,17.67
2023-04-18T16:51:40.519Z,17.48
2023-04-18T16:54:08.705Z,20.48
2023-04-18T16:56:35.917Z,34.97
2023-04-18T16:59:03.959Z,19.27
2023-04-18T17:01:31.912Z,18.27
2023-04-18T17:03:59.258Z,19.52
2023-04-18T17:06:27.176Z,19.15
2023-04-18T17:08:54.601Z,21.20
2023-04-18T17:11:21.877Z,18.02
2023-04-18T17:13:51.084Z,25.38
2023-04-18T17:16:18.568Z,17.48
2023-04-18T17:18:46.011Z,19.35
2023-04-18T17:21:13.228Z,21.60
2023-04-18T17:23:42.455Z,16.98
2023-04-18T17:26:10.551Z,20.33
2023-04-18T17:28:37.824Z,21.33
2023-04-18T17:31:05.340Z,18.85
2023-04-18T17:33:32.483Z,23.52
2023-04-18T17:35:59.677Z,20.30
2023-04-18T17:38:26.817Z,23.08
2023-04-18T17:41:00.890Z,21.88
2023-04-18T17:43:28.229Z,20.98
2023-04-18T17:45:56.978Z,21.33
2023-04-18T17:48:24.275Z,20.67
2023-04-18T17:50:51.424Z,22.65
2023-04-18T17:53:18.753Z,21.30
2023-04-18T17:55:48.907Z,23.00
2023-04-18T17:58:16.915Z,24.20
2023-04-18T18:00:44.073Z,23.58
2023-04-18T18:03:13.866Z,21.52
2023-04-18T18:05:41.528Z,52.28
2023-04-18T18:08:08.873Z,25.42
2023-04-18T18:10:36.122Z,28.10
2023-04-18T18:13:03.521Z,22.52
2023-04-18T18:15:31.408Z,29.38
2023-04-18T18:17:58.693Z,26.50
2023-04-18T18:20:27.339Z,28.80
2023-04-18T18:22:55.106Z,25.80
2023-04-18T18:25:22.375Z,29.83
2023-04-18T18:27:51.252Z,24.77
2023-04-18T18:30:19.595Z,27.88
2023-04-18T18:32:46.844Z,27.27
2023-04-18T18:35:14.240Z,30.10
2023-04-18T18:37:41.624Z,28.48
2023-04-18T18:40:09.231Z,29.15
2023-04-18T18:42:36.354Z,28.88
2023-04-18T18:45:04.000Z,28.73
2023-04-18T18:47:31.187Z,28.88
2023-04-18T18:49:58.378Z,33.35
2023-04-18T18:52:27.976Z,31.77
2023-04-18T18:54:55.260Z,31.02
2023-04-18T18:57:22.387Z,34.03
2023-04-18T18:59:50.241Z,31.55
2023-04-18T19:02:17.799Z,30.65
2023-04-18T19:04:45.431Z,32.53
2023-04-18T19:07:12.685Z,33.83
2023-04-18T19:09:39.817Z,31.27
2023-04-18T19:12:07.152Z,30.55
2023-04-18T19:14:34.392Z,33.25
2023-04-18T19:17:01.592Z,35.10
2023-04-18T19:19:28.820Z,31.60
2023-04-18T19:21:56.483Z,38.20
2023-04-18T19:24:23.692Z,30.15
2023-04-18T19:26:50.943Z,29.80
2023-04-18T19:29:18.146Z,35.60
2023-04-18T19:31:45.702Z,32.30
2023-04-18T19:34:13.537Z,30.10
2023-04-18T19:36:40.778Z,30.40
2023-04-18T19:39:08.988Z,30.55
2023-04-18T19:41:36.156Z,33.00
2023-04-18T19:44:03.932Z,33.53
2023-04-18T19:46:31.216Z,33.45
2023-04-18T19:48:58.432Z,34.05
2023-04-18T19:51:27.841Z,32.88
2023-04-18T19:53:55.675Z,35.80
2023-04-18T19:56:23.472Z,32.30
2023-04-18T19:58:51.084Z,31.98
2023-04-18T20:01:19.560Z,39.00
2023-04-18T20:03:47.190Z,30.52
2023-04-18T20:06:14.526Z,33.65
2023-04-18T20:08:42.062Z,32.90
2023-04-18T20:11:10.027Z,34.70
2023-04-18T20:13:37.517Z,35.17
2023-04-18T20:16:09.125Z,39.95
2023-04-18T20:18:37.693Z,38.28
2023-04-18T20:21:06.564Z,36.65
2023-04-18T20:23:34.231Z,32.95
2023-04-18T20:26:01.517Z,38.25
2023-04-18T20:28:28.742Z,35.97
2023-04-18T20:30:56.529Z,31.73
2023-04-18T20:33:23.714Z,35.53
2023-04-18T20:35:50.982Z,33.97
2023-04-18T20:38:20.117Z,39.67
2023-04-18T20:40:47.243Z,37.22
2023-04-18T20:43:17.330Z,36.60
2023-04-18T20:45:45.909Z,37.83
2023-04-18T20:48:13.130Z,34.72
2023-04-18T20:50:41.015Z,32.40
2023-04-18T20:53:08.153Z,36.40
2023-04-18T20:55:35.325Z,35.95
2023-04-18T20:58:05.278Z,37.20
2023-04-18T21:00:32.450Z,37.22
2023-04-18T21:02:59.825Z,37.97
2023-04-18T21:05:27.088Z,35.92
2023-04-18T21:07:54.243Z,30.85
2023-04-18T21:10:21.406Z,34.35
2023-04-18T21:12:48.551Z,29.00
2023-04-18T21:15:15.712Z,32.33
2023-04-18T21:17:42.923Z,32.83
2023-04-18T21:20:10.318Z,31.73
2023-04-18T21:22:37.490Z,30.05
2023-04-18T21:25:05.119Z,30.95
2023-04-18T21:27:32.278Z,33.97
2023-04-18T21:29:59.855Z,31.88
2023-04-18T21:32:27.037Z,37.92
2023-04-18T21:34:56.311Z,31.65
2023-04-18T21:37:23.528Z,34.88
2023-04-18T21:39:50.695Z,33.50
2023-04-18T21:42:17.835Z,32.13
2023-04-18T21:44:44.999Z,36.78
2023-04-18T21:47:12.166Z,32.90
2023-04-18T21:49:39.296Z,37.80
2023-04-18T21:52:07.881Z,36.97
2023-04-18T21:54:35.107Z,37.78
2023-04-18T21:57:02.752Z,35.13
2023-04-18T21:59:30.648Z,31.48
2023-04-18T22:01:57.934Z,32.35
2023-04-18T22:04:26.738Z,32.58
2023-04-18T22:06:54.233Z,30.38
2023-04-18T22:09:22.613Z,29.23
2023-04-18T22:11:51.594Z,31.58
2023-04-18T22:14:19.982Z,30.67
2023-04-18T22:16:47.632Z,34.75
2023-04-18T22:19:14.795Z,35.95
2023-04-18T22:21:41.923Z,29.52
2023-04-18T22:24:09.625Z,37.67
2023-04-18T22:26:36.728Z,38.75
2023-04-18T22:29:03.948Z,35.47
2023-04-18T22:31:31.386Z,38.95
2023-04-18T22:33:58.607Z,47.65
2023-04-18T22:36:27.587Z,38.97
2023-04-18T22:38:54.744Z,42.08
2023-04-18T22:41:21.879Z,53.20
2023-04-18T22:43:49.157Z,45.22
2023-04-18T22:46:16.584Z,46.60
2023-04-18T22:48:44.863Z,53.67
2023-04-18T22:51:14.154Z,54.15
2023-04-18T22:53:41.313Z,55.65
2023-04-18T22:56:08.662Z,43.65
2023-04-18T22:58:36.330Z,43.03
2023-04-18T23:01:03.646Z,53.22
2023-04-18T23:03:34.355Z,39.88
2023-04-18T23:06:01.775Z,43.08
2023-04-18T23:08:29.097Z,45.85
2023-04-18T23:10:56.216Z,41.53
2023-04-18T23:13:23.428Z,48.30
2023-04-18T23:15:50.657Z,47.15
2023-04-18T23:18:17.900Z,41.45
2023-04-18T23:20:45.090Z,45.38
2023-04-18T23:23:12.517Z,47.38
2023-04-18T23:25:39.774Z,44.70
2023-04-18T23:28:07.028Z,46.22
2023-04-18T23:30:37.056Z,44.45
2023-04-18T23:33:04.366Z,42.92
2023-04-18T23:35:31.538Z,43.63
2023-04-18T23:37:58.744Z,48.05
2023-04-18T23:40:25.940Z,50.53
2023-04-18T23:42:53.077Z,46.47
2023-04-18T23:45:20.257Z,49.13
2023-04-18T23:47:47.862Z,48.45
2023-04-18T23:50:15.014Z,44.92
2023-04-18T23:52:42.154Z,55.33
2023-04-18T23:55:09.602Z,50.65
2023-04-18T23:57:36.787Z,50.22
